Time;durP1;ratioP1;P1;durP2;ratioP2;P2;SDS_P1;SDS_P2;PMS_P1;PMS_P2;Temp;Humidity;BMP_temperature;BMP_pressure;BME280_temperature;BME280_humidity;BME280_pressure;Samples;Min_cycle;Max_cycle;Signal;HPM_P1;HPM_P2
2023/06/08 00:08:29;;;;;;;9.38;3.40;;;14.30;1.00;;;;;;20811420;28;20067;-40
2023/06/08 00:18:56;;;;;;;5.85;3.10;;;14.20;1.00;;;;;;20807815;28;20469;-40
2023/06/08 00:29:17;;;;;;;8.45;3.00;;;14.10;1.00;;;;;;20803421;28;20045;-42
2023/06/08 00:39:39;;;;;;;13.30;4.05;;;13.80;1.00;;;;;;20807198;28;20055;-42
2023/06/08 00:50:02;;;;;;;10.02;4.00;;;13.80;1.00;;;;;;20807851;28;20132;-40
2023/06/08 01:00:25;;;;;;;9.98;3.90;;;13.80;1.00;;;;;;20807521;28;20068;-41
2023/06/08 01:10:48;;;;;;;7.95;2.97;;;13.80;1.00;;;;;;20799725;28;20321;-41
2023/06/08 01:21:47;;;;;;;6.20;3.53;;;13.70;1.00;;;;;;20806937;28;20056;-41
2023/06/08 01:32:08;;;;;;;;;;;13.40;1.00;;;;;;20798589;28;20326;-41
2023/06/08 01:42:31;;;;;;;7.60;3.25;;;13.30;1.00;;;;;;20805922;28;19923;-41
2023/06/08 01:52:55;;;;;;;10.55;3.90;;;13.30;1.00;;;;;;20802630;28;20037;-40
2023/06/08 02:03:17;;;;;;;7.55;3.75;;;13.10;1.00;;;;;;20805576;28;20128;-40
2023/06/08 02:13:42;;;;;;;10.32;3.45;;;13.10;1.00;;;;;;20808450;28;20529;-41
2023/06/08 02:24:04;;;;;;;9.88;4.30;;;12.90;1.00;;;;;;20799189;28;20064;-41
2023/06/08 02:34:25;;;;;;;8.68;3.50;;;12.80;1.00;;;;;;20801803;28;20531;-40
2023/06/08 02:44:47;;;;;;;9.23;3.70;;;12.70;1.00;;;;;;20807795;28;20075;-41
2023/06/08 02:55:08;;;;;;;7.78;3.97;;;12.60;1.00;;;;;;20814817;28;20095;-40
2023/06/08 03:05:34;;;;;;;10.82;4.13;;;12.50;1.00;;;;;;20821915;28;20068;-40
2023/06/08 03:15:55;;;;;;;8.50;3.95;;;12.40;1.00;;;;;;20816634;28;20367;-41
2023/06/08 03:26:16;;;;;;;12.88;5.22;;;12.30;1.00;;;;;;20816578;28;20077;-41
2023/06/08 03:36:38;;;;;;;8.05;4.05;;;12.20;1.00;;;;;;20820132;28;20084;-41
2023/06/08 03:46:59;;;;;;;10.13;4.30;;;12.10;1.00;;;;;;20823379;28;20108;-41
2023/06/08 03:57:21;;;;;;;12.75;5.30;;;12.10;1.00;;;;;;20804804;28;20364;-41
2023/06/08 04:07:42;;;;;;;11.35;5.47;;;12.10;1.00;;;;;;20805860;28;20091;-41
2023/06/08 04:18:05;;;;;;;10.45;4.63;;;12.20;1.00;;;;;;20800754;28;20123;-41
2023/06/08 04:28:27;;;;;;;10.23;4.18;;;12.30;1.00;;;;;;20803244;28;20678;-41
2023/06/08 04:38:49;;;;;;;10.98;5.15;;;12.40;1.00;;;;;;20805068;28;20052;-41
2023/06/08 04:49:12;;;;;;;10.65;4.88;;;12.40;1.00;;;;;;20802913;28;20088;-41
2023/06/08 04:59:33;;;;;;;9.82;4.43;;;12.30;1.00;;;;;;20813430;28;20478;-42
2023/06/08 05:09:56;;;;;;;9.00;5.10;;;12.40;1.00;;;;;;20804056;28;20045;-41
2023/06/08 05:20:19;;;;;;;14.30;4.25;;;12.50;1.00;;;;;;20811726;28;20034;-42
2023/06/08 05:30:40;;;;;;;12.48;5.07;;;12.70;1.00;;;;;;20806740;28;20040;-42
2023/06/08 05:41:01;;;;;;;7.60;3.90;;;12.80;1.00;;;;;;20803934;28;20069;-40
2023/06/08 05:51:23;;;;;;;13.27;5.30;;;13.00;1.00;;;;;;20805143;28;20136;-41
2023/06/08 06:01:45;;;;;;;6.90;3.60;;;13.00;1.00;;;;;;20816232;28;20418;-41
2023/06/08 06:12:09;;;;;;;8.05;4.07;;;13.00;1.00;;;;;;20804967;28;20045;-41
2023/06/08 06:22:31;;;;;;;7.60;3.30;;;13.10;1.00;;;;;;20816108;28;20120;-42
2023/06/08 06:32:52;;;;;;;10.25;4.20;;;13.60;1.00;;;;;;20820765;28;20065;-42
2023/06/08 06:43:13;;;;;;;9.18;4.85;;;14.20;1.00;;;;;;20844331;28;20045;-42
2023/06/08 06:53:35;;;;;;;7.18;3.83;;;14.40;1.00;;;;;;20839082;28;20076;-42
2023/06/08 07:03:56;;;;;;;7.30;3.10;;;14.50;1.00;;;;;;20826088;28;20506;-42
2023/06/08 07:14:17;;;;;;;10.05;3.22;;;14.40;1.00;;;;;;20829853;28;20269;-42
2023/06/08 07:24:39;;;;;;;6.53;3.75;;;14.40;1.00;;;;;;20821758;28;20309;-42
2023/06/08 07:35:03;;;;;;;12.02;5.38;;;14.60;1.00;;;;;;20818095;28;20098;-42
2023/06/08 07:45:25;;;;;;;7.30;3.53;;;14.80;1.00;;;;;;20817954;28;20045;-42
2023/06/08 07:55:46;;;;;;;11.32;4.75;;;15.30;1.00;;;;;;20813876;28;20730;-42
2023/06/08 08:06:07;;;;;;;7.65;4.00;;;15.60;1.00;;;;;;20815081;28;20083;-42
2023/06/08 08:16:29;;;;;;;8.00;4.28;;;16.20;1.00;;;;;;20803396;28;20063;-41
2023/06/08 08:26:55;;;;;;;7.28;3.15;;;16.50;1.00;;;;;;20806904;28;20599;-40
2023/06/08 08:37:17;;;;;;;8.02;3.88;;;16.60;1.00;;;;;;20769735;28;20599;-41
2023/06/08 08:47:39;;;;;;;6.03;3.20;;;16.90;1.00;;;;;;20810313;28;20392;-41
2023/06/08 08:58:01;;;;;;;6.28;3.10;;;17.20;1.00;;;;;;20788418;28;20425;-41
2023/06/08 09:08:22;;;;;;;6.53;3.10;;;17.50;1.00;;;;;;20790320;28;20075;-41
2023/06/08 09:18:46;;;;;;;10.07;3.47;;;17.70;1.00;;;;;;20796012;28;20399;-41
2023/06/08 09:29:07;;;;;;;8.45;3.60;;;18.10;1.00;;;;;;20796997;28;20053;-41
2023/06/08 09:39:38;;;;;;;7.70;3.67;;;18.20;1.00;;;;;;20779487;28;20718;-42
2023/06/08 09:49:59;;;;;;;8.98;3.88;;;18.60;1.00;;;;;;20789196;28;20261;-41
2023/06/08 10:00:23;;;;;;;10.65;4.38;;;18.90;1.00;;;;;;20821179;28;20037;-41
2023/06/08 10:10:45;;;;;;;8.30;4.07;;;19.20;1.00;;;;;;20841124;28;20068;-41
2023/06/08 10:21:06;;;;;;;11.90;4.18;;;19.10;1.00;;;;;;20847307;28;20037;-42
2023/06/08 10:31:32;;;;;;;7.40;3.72;;;19.80;1.00;;;;;;20834849;28;20888;-41
2023/06/08 10:41:54;;;;;;;9.82;4.40;;;20.00;1.00;;;;;;20797577;28;21122;-41
2023/06/08 10:52:21;;;;;;;9.73;4.05;;;20.10;1.00;;;;;;20830853;28;20060;-40
2023/06/08 11:02:43;;;;;;;4.18;2.30;;;20.30;1.00;;;;;;20834496;28;20041;-40
2023/06/08 11:13:17;;;;;;;9.27;3.95;;;20.70;1.00;;;;;;20843041;28;20036;-41
2023/06/08 11:23:39;;;;;;;7.90;3.08;;;21.40;1.00;;;;;;20788373;28;20520;-41
2023/06/08 11:34:00;;;;;;;7.20;4.03;;;21.50;1.00;;;;;;20805650;28;20189;-40
2023/06/08 11:44:25;;;;;;;8.52;3.42;;;21.40;1.00;;;;;;20818266;28;20049;-41
2023/06/08 11:54:54;;;;;;;12.77;3.42;;;21.70;1.00;;;;;;20823444;28;20041;-41
2023/06/08 12:05:22;;;;;;;7.47;2.92;;;21.40;1.00;;;;;;20810994;28;20064;-40
2023/06/08 12:15:45;;;;;;;;;;;21.90;1.00;;;;;;20806553;28;20029;-41
2023/06/08 12:26:06;;;;;;;7.47;2.75;;;22.10;1.00;;;;;;20803197;28;19912;-41
2023/06/08 12:36:27;;;;;;;8.00;2.80;;;22.40;1.00;;;;;;20799446;28;20631;-41
2023/06/08 12:46:49;;;;;;;8.80;2.88;;;22.60;1.00;;;;;;20792420;28;20045;-40
2023/06/08 12:57:11;;;;;;;5.63;2.40;;;22.30;1.00;;;;;;20805078;28;20317;-40
2023/06/08 13:07:35;;;;;;;9.68;3.10;;;22.60;1.00;;;;;;20795143;28;20045;-41
2023/06/08 13:17:57;;;;;;;6.63;2.70;;;22.80;1.00;;;;;;20803493;28;20116;-42
2023/06/08 13:28:19;;;;;;;5.20;2.38;;;23.30;1.00;;;;;;20796807;28;20191;-41
2023/06/08 13:38:40;;;;;;;6.45;2.10;;;22.90;1.00;;;;;;20785594;28;20638;-41
2023/06/08 13:49:02;;;;;;;8.32;2.78;;;23.10;1.00;;;;;;20798946;28;20140;-41
2023/06/08 13:59:23;;;;;;;7.88;2.70;;;23.30;1.00;;;;;;20796413;28;20033;-41
2023/06/08 14:09:45;;;;;;;7.57;2.65;;;23.40;1.00;;;;;;20809784;28;20037;-41
2023/06/08 14:20:08;;;;;;;7.53;2.90;;;23.30;1.00;;;;;;20808502;28;20103;-41
2023/06/08 14:30:29;;;;;;;6.68;2.33;;;23.20;1.00;;;;;;20806782;28;20036;-41
2023/06/08 14:40:50;;;;;;;12.38;2.80;;;23.30;1.00;;;;;;20811169;28;20068;-41
2023/06/08 14:51:14;;;;;;;8.60;2.25;;;23.30;1.00;;;;;;20808240;28;20600;-41
2023/06/08 15:01:35;;;;;;;7.20;2.30;;;23.00;1.00;;;;;;20818041;28;20129;-41
2023/06/08 15:11:56;;;;;;;5.65;2.65;;;22.80;1.00;;;;;;20826475;28;20152;-42
2023/06/08 15:22:18;;;;;;;13.10;3.00;;;22.80;1.00;;;;;;20817838;28;20493;-41
2023/06/08 15:32:39;;;;;;;6.65;2.05;;;22.80;1.00;;;;;;20808773;28;20258;-41
2023/06/08 15:43:00;;;;;;;7.00;2.28;;;22.70;1.00;;;;;;20798971;28;20067;-42
2023/06/08 15:53:22;;;;;;;5.40;1.92;;;22.70;1.00;;;;;;20793688;28;20435;-42
2023/06/08 16:03:43;;;;;;;4.63;2.03;;;22.50;1.00;;;;;;20814170;28;20121;-42
2023/06/08 16:14:04;;;;;;;5.07;2.10;;;22.30;1.00;;;;;;20826309;28;20251;-41
2023/06/08 16:24:29;;;;;;;3.38;1.98;;;22.30;1.00;;;;;;20835462;28;20142;-41
2023/06/08 16:34:50;;;;;;;6.75;2.40;;;22.10;1.00;;;;;;20820670;28;20634;-41
2023/06/08 16:45:11;;;;;;;5.45;2.47;;;22.10;1.00;;;;;;20812459;28;20168;-41
2023/06/08 16:55:33;;;;;;;4.63;1.83;;;22.10;1.00;;;;;;20825533;28;20072;-42
2023/06/08 17:05:54;;;;;;;5.95;1.77;;;22.00;1.00;;;;;;20809981;28;20652;-41
2023/06/08 17:16:15;;;;;;;2.90;1.55;;;21.70;1.00;;;;;;20796488;28;21361;-41
2023/06/08 17:26:39;;;;;;;3.85;1.58;;;21.50;1.00;;;;;;20810042;28;20127;-41
2023/06/08 17:37:00;;;;;;;3.03;1.65;;;21.50;1.00;;;;;;20802619;28;20049;-41
2023/06/08 17:47:21;;;;;;;3.55;1.88;;;21.40;1.00;;;;;;20803584;28;20148;-41
2023/06/08 17:57:43;;;;;;;3.85;1.50;;;21.20;1.00;;;;;;20798055;28;21528;-41
2023/06/08 18:08:04;;;;;;;5.22;1.55;;;21.00;1.00;;;;;;20815157;28;20146;-41
2023/06/08 18:18:25;;;;;;;4.45;1.58;;;20.90;1.00;;;;;;20832311;28;20060;-41
2023/06/08 18:28:47;;;;;;;4.53;1.52;;;20.70;1.00;;;;;;20833272;28;20028;-41
2023/06/08 18:39:08;;;;;;;3.92;1.30;;;20.50;1.00;;;;;;20847387;28;20029;-41
2023/06/08 18:49:30;;;;;;;6.82;1.63;;;20.40;1.00;;;;;;20841092;28;20041;-41
2023/06/08 18:59:51;;;;;;;5.68;2.15;;;20.30;1.00;;;;;;20829516;28;20037;-42
2023/06/08 19:10:14;;;;;;;5.80;2.38;;;20.10;1.00;;;;;;20842611;28;20268;-41
2023/06/08 19:20:35;;;;;;;4.22;1.88;;;19.80;1.00;;;;;;20835281;28;20510;-41
2023/06/08 19:30:56;;;;;;;2.28;1.23;;;19.70;1.00;;;;;;20826836;28;20058;-41
2023/06/08 19:41:18;;;;;;;5.13;2.30;;;19.50;1.00;;;;;;20823323;28;20532;-41
2023/06/08 19:51:39;;;;;;;4.70;1.65;;;19.50;1.00;;;;;;20835319;28;20444;-41
2023/06/08 20:02:00;;;;;;;8.45;1.83;;;19.30;1.00;;;;;;20830931;28;20457;-41
2023/06/08 20:12:22;;;;;;;4.43;1.60;;;19.20;1.00;;;;;;20826457;28;20045;-41
2023/06/08 20:22:43;;;;;;;3.95;1.60;;;19.00;1.00;;;;;;20836337;28;20037;-41
2023/06/08 20:33:04;;;;;;;4.97;1.50;;;18.80;1.00;;;;;;20817039;28;20048;-41
2023/06/08 20:43:26;;;;;;;7.60;1.42;;;18.70;1.00;;;;;;20812951;28;20067;-41
2023/06/08 20:53:47;;;;;;;3.35;1.50;;;18.50;1.00;;;;;;20821737;28;20153;-41
2023/06/08 21:04:08;;;;;;;4.05;1.90;;;18.30;1.00;;;;;;20824461;28;20051;-41
2023/06/08 21:14:30;;;;;;;3.63;1.40;;;18.30;1.00;;;;;;20816399;28;20045;-41
2023/06/08 21:24:51;;;;;;;5.40;1.27;;;18.20;1.00;;;;;;20794122;28;20127;-41
2023/06/08 21:35:12;;;;;;;3.33;1.42;;;18.20;1.00;;;;;;20806989;28;20069;-41
2023/06/08 21:45:34;;;;;;;3.65;1.30;;;18.00;1.00;;;;;;20803869;28;20187;-41
2023/06/08 21:55:55;;;;;;;5.95;1.58;;;17.80;1.00;;;;;;20804541;28;20131;-41
2023/06/08 22:06:17;;;;;;;3.05;1.13;;;17.70;1.00;;;;;;20805244;28;20278;-41
2023/06/08 22:16:39;;;;;;;9.93;2.28;;;17.60;1.00;;;;;;20802893;28;20128;-41
2023/06/08 22:27:03;;;;;;;7.38;1.90;;;17.40;1.00;;;;;;20807751;28;20079;-41
2023/06/08 22:37:24;;;;;;;3.28;1.50;;;17.20;1.00;;;;;;20802927;28;20401;-41
2023/06/08 22:47:46;;;;;;;3.50;1.60;;;17.10;1.00;;;;;;20796805;28;20041;-41
2023/06/08 22:58:08;;;;;;;4.45;1.02;;;16.90;1.00;;;;;;20802605;28;20404;-41
2023/06/08 23:08:30;;;;;;;5.40;1.60;;;16.80;1.00;;;;;;20807461;28;20088;-41
2023/06/08 23:18:51;;;;;;;7.07;2.22;;;16.70;1.00;;;;;;20800269;28;20267;-41
2023/06/08 23:29:13;;;;;;;5.15;1.67;;;16.50;1.00;;;;;;20821451;28;20324;-41
2023/06/08 23:39:34;;;;;;;6.97;1.85;;;16.30;1.00;;;;;;20796966;28;20056;-41
2023/06/08 23:49:55;;;;;;;7.75;1.70;;;16.20;1.00;;;;;;20812200;28;20041;-41
